Terminal Aerodrome Forecast
Issued by NWS Twin Cities, MN

Home | Current Version | Previous Version | Graphics & Text | Print | Product List | Glossary On
Versions: 1 2 3 4 5 6 7 8 9 10 11 12 13 14 15 16 17 18
192
FTUS43 KMPX 201502 AAB
TAFEAU
TAF AMD
KEAU 201502Z 2015/2112 24004KT 1SM BR SCT120
     FM201630 25003KT P6SM OVC100
     FM210400 00000KT P6SM BKN030=

USA.gov is the U.S. government's official web portal to all federal, state and local government web resources and services.